createdAt,value
2023-05-04T00:00:53.821Z,42.66
2023-05-04T00:03:22.996Z,42.81
2023-05-04T00:05:51.402Z,42.62
2023-05-04T00:08:19.574Z,42.90
2023-05-04T00:10:47.959Z,42.79
2023-05-04T00:13:16.506Z,42.74
2023-05-04T00:15:45.169Z,42.82
2023-05-04T00:18:14.149Z,42.81
2023-05-04T00:20:42.434Z,42.82
2023-05-04T00:23:10.814Z,42.93
2023-05-04T00:25:39.089Z,42.82
2023-05-04T00:28:07.213Z,43.03
2023-05-04T00:30:35.469Z,43.52
2023-05-04T00:33:03.969Z,43.58
2023-05-04T00:35:32.816Z,43.81
2023-05-04T00:38:04.112Z,43.81
2023-05-04T00:40:32.722Z,44.13
2023-05-04T00:43:04.232Z,44.53
2023-05-04T00:45:33.639Z,44.90
2023-05-04T00:48:02.179Z,44.88
2023-05-04T00:50:30.915Z,44.76
2023-05-04T00:53:01.868Z,44.79
2023-05-04T00:55:30.251Z,45.09
2023-05-04T00:57:59.084Z,45.44
2023-05-04T01:00:27.938Z,45.91
2023-05-04T01:02:58.809Z,45.80
2023-05-04T01:05:35.401Z,45.51
2023-05-04T01:08:13.557Z,45.74
2023-05-04T01:10:56.901Z,45.68
2023-05-04T01:13:26.429Z,45.63
2023-05-04T01:15:56.022Z,45.83
2023-05-04T01:18:24.695Z,45.86
2023-05-04T01:20:52.929Z,45.89
2023-05-04T01:23:22.674Z,45.96
2023-05-04T01:26:04.081Z,46.26
2023-05-04T01:28:38.292Z,46.90
2023-05-04T01:31:10.213Z,46.55
2023-05-04T01:33:39.629Z,46.53
2023-05-04T01:36:08.771Z,47.13
2023-05-04T01:38:37.569Z,46.98
2023-05-04T01:41:05.737Z,47.10
2023-05-04T01:43:34.019Z,46.90
2023-05-04T01:46:02.265Z,46.69
2023-05-04T01:48:31.296Z,46.83
2023-05-04T01:50:59.511Z,46.74
2023-05-04T01:53:27.967Z,46.75
2023-05-04T01:55:56.566Z,46.78
2023-05-04T01:58:25.548Z,46.76
2023-05-04T02:00:54.446Z,47.01
2023-05-04T02:03:23.015Z,47.04
2023-05-04T02:05:52.111Z,47.12
2023-05-04T02:08:20.624Z,47.27
2023-05-04T02:10:49.330Z,47.32
2023-05-04T02:13:19.234Z,47.55
2023-05-04T02:15:48.274Z,47.41
2023-05-04T02:18:18.067Z,47.56
2023-05-04T02:20:46.541Z,47.49
2023-05-04T02:23:18.918Z,47.86
2023-05-04T02:25:47.099Z,48.02
2023-05-04T02:28:15.783Z,47.96
2023-05-04T02:30:44.786Z,48.26
2023-05-04T02:33:13.283Z,48.44
2023-05-04T02:35:43.502Z,49.07
2023-05-04T02:38:12.600Z,49.24
2023-05-04T02:40:41.809Z,50.20
2023-05-04T02:43:10.084Z,50.31
2023-05-04T02:45:38.642Z,49.97
2023-05-04T02:48:07.113Z,50.17
2023-05-04T02:50:35.713Z,50.37
2023-05-04T02:53:04.239Z,50.76
2023-05-04T02:55:32.636Z,51.13
2023-05-04T02:58:01.924Z,51.08
2023-05-04T03:00:30.312Z,51.20
2023-05-04T03:02:58.530Z,51.06
2023-05-04T03:05:27.395Z,51.01
2023-05-04T03:07:56.695Z,50.99
2023-05-04T03:10:25.384Z,51.22
2023-05-04T03:12:53.790Z,51.33
2023-05-04T03:15:22.360Z,51.18
2023-05-04T03:17:50.864Z,51.38
2023-05-04T03:20:19.135Z,51.33
2023-05-04T03:22:47.309Z,51.62
2023-05-04T03:25:15.803Z,51.72
2023-05-04T03:27:43.986Z,51.71
2023-05-04T03:30:13.236Z,51.74
2023-05-04T03:32:42.920Z,51.85
2023-05-04T03:35:11.793Z,52.20
2023-05-04T03:37:40.281Z,52.25
2023-05-04T03:40:09.431Z,52.01
2023-05-04T03:42:38.386Z,51.99
2023-05-04T03:45:07.903Z,52.23
2023-05-04T03:47:37.235Z,52.23
2023-05-04T03:50:07.226Z,52.77
2023-05-04T03:52:36.205Z,52.68
2023-05-04T03:55:07.135Z,52.56
2023-05-04T03:57:35.542Z,52.90
2023-05-04T04:00:05.075Z,53.14
2023-05-04T04:02:43.585Z,53.31
2023-05-04T04:05:17.586Z,53.05
2023-05-04T04:07:46.575Z,52.89
2023-05-04T04:10:14.757Z,53.07
2023-05-04T04:12:43.377Z,53.29
2023-05-04T04:15:12.422Z,53.09
2023-05-04T04:17:41.386Z,53.05
2023-05-04T04:20:10.588Z,53.01
2023-05-04T04:22:38.931Z,53.22
2023-05-04T04:25:07.886Z,53.42
2023-05-04T04:27:37.182Z,53.58
2023-05-04T04:30:06.403Z,53.36
2023-05-04T04:32:35.478Z,53.52
2023-05-04T04:35:04.682Z,53.31
2023-05-04T04:37:33.127Z,53.51
2023-05-04T04:40:02.297Z,53.38
2023-05-04T04:42:30.917Z,53.37
2023-05-04T04:44:59.505Z,53.43
2023-05-04T04:47:27.857Z,53.18
2023-05-04T04:49:56.684Z,53.15
2023-05-04T04:52:25.274Z,53.31
2023-05-04T04:54:53.595Z,53.43
2023-05-04T04:57:21.962Z,53.19
2023-05-04T04:59:50.339Z,53.03
2023-05-04T05:02:20.308Z,53.02
2023-05-04T05:04:49.442Z,52.98
2023-05-04T05:07:18.454Z,52.71
2023-05-04T05:09:47.067Z,52.65
2023-05-04T05:12:17.072Z,52.38
2023-05-04T05:14:48.768Z,52.09
2023-05-04T05:17:18.533Z,52.20
2023-05-04T05:19:49.371Z,52.25
2023-05-04T05:22:18.284Z,52.14
2023-05-04T05:24:46.775Z,51.99
2023-05-04T05:27:14.936Z,51.93
2023-05-04T05:29:43.891Z,51.76
2023-05-04T05:32:12.629Z,51.76
2023-05-04T05:34:41.010Z,51.66
2023-05-04T05:37:10.114Z,51.61
2023-05-04T05:39:38.906Z,51.49
2023-05-04T05:42:09.987Z,51.33
2023-05-04T05:44:38.244Z,51.32
2023-05-04T05:47:07.030Z,51.07
2023-05-04T05:49:35.414Z,50.95
2023-05-04T05:52:03.916Z,50.82
2023-05-04T05:54:32.463Z,50.74
2023-05-04T05:57:01.192Z,50.79
2023-05-04T05:59:29.972Z,50.54
2023-05-04T06:01:58.388Z,50.32
2023-05-04T06:04:26.774Z,50.15
2023-05-04T06:06:55.243Z,50.24
2023-05-04T06:09:24.328Z,50.28
2023-05-04T06:11:54.819Z,50.07
2023-05-04T06:14:24.075Z,49.76
2023-05-04T06:16:53.174Z,49.78
2023-05-04T06:19:22.175Z,49.82
2023-05-04T06:21:50.763Z,49.61
2023-05-04T06:24:19.037Z,49.46
2023-05-04T06:26:47.742Z,49.20
2023-05-04T06:29:16.488Z,47.68
2023-05-04T06:31:48.099Z,45.69
2023-05-04T06:34:17.431Z,45.27
2023-05-04T06:36:45.888Z,44.46
2023-05-04T06:39:15.230Z,44.21
2023-05-04T06:41:43.606Z,43.46
2023-05-04T06:44:11.946Z,43.50
2023-05-04T06:46:40.652Z,43.35
2023-05-04T06:49:09.064Z,43.10
2023-05-04T06:51:37.832Z,42.67
2023-05-04T06:54:06.351Z,42.43
2023-05-04T06:56:35.093Z,42.62
2023-05-04T06:59:03.410Z,42.59
2023-05-04T07:01:32.347Z,42.44
2023-05-04T07:04:01.179Z,42.35
2023-05-04T07:06:29.987Z,42.28
2023-05-04T07:08:58.253Z,42.38
2023-05-04T07:11:28.171Z,42.52
2023-05-04T07:13:56.926Z,42.74
2023-05-04T07:16:26.402Z,42.72
2023-05-04T07:18:54.764Z,42.70
2023-05-04T07:21:28.257Z,42.73
2023-05-04T07:23:57.456Z,43.11
2023-05-04T07:26:25.956Z,43.25
2023-05-04T07:28:54.218Z,42.81
2023-05-04T07:31:22.981Z,42.42
2023-05-04T07:33:51.500Z,42.21
2023-05-04T07:36:20.780Z,42.37
2023-05-04T07:38:49.121Z,42.66
2023-05-04T07:41:17.384Z,43.08
2023-05-04T07:43:46.225Z,43.54
2023-05-04T07:46:14.557Z,43.98
2023-05-04T07:48:43.249Z,44.24
2023-05-04T07:51:15.207Z,44.49
2023-05-04T07:53:45.257Z,44.72
2023-05-04T07:56:14.126Z,45.19
2023-05-04T07:58:42.612Z,45.71
2023-05-04T08:01:11.630Z,46.25
2023-05-04T08:03:40.307Z,46.57
2023-05-04T08:06:08.753Z,46.89
2023-05-04T08:08:37.305Z,47.20
2023-05-04T08:11:19.131Z,47.45
2023-05-04T08:13:49.793Z,47.58
2023-05-04T08:16:18.616Z,47.82
2023-05-04T08:18:47.709Z,47.89
2023-05-04T08:21:15.986Z,47.86
2023-05-04T08:23:44.488Z,47.87
2023-05-04T08:26:12.754Z,47.75
2023-05-04T08:28:41.884Z,47.70
2023-05-04T08:31:10.328Z,47.51
2023-05-04T08:33:38.744Z,47.11
2023-05-04T08:36:08.660Z,46.65
2023-05-04T08:38:37.244Z,46.58
2023-05-04T08:41:06.757Z,46.42
2023-05-04T08:43:36.304Z,46.47
2023-05-04T08:46:06.324Z,46.37
2023-05-04T08:48:35.130Z,46.19
2023-05-04T08:51:06.842Z,45.97
2023-05-04T08:53:37.587Z,45.56
2023-05-04T08:56:09.685Z,44.77
2023-05-04T08:58:41.297Z,43.57
2023-05-04T09:01:11.511Z,43.19
2023-05-04T09:03:41.069Z,42.46
2023-05-04T09:06:09.847Z,42.41
2023-05-04T09:08:38.226Z,41.58
2023-05-04T09:11:06.813Z,41.31
2023-05-04T09:13:35.810Z,41.89
2023-05-04T09:16:04.721Z,41.26
2023-05-04T09:18:59.594Z,41.14
2023-05-04T09:21:31.980Z,40.80
2023-05-04T09:24:00.409Z,40.50
2023-05-04T09:26:32.330Z,40.46
2023-05-04T09:29:14.691Z,40.15
2023-05-04T09:31:51.460Z,40.27
2023-05-04T09:34:21.600Z,40.30
2023-05-04T09:37:03.714Z,38.54
2023-05-04T09:39:32.209Z,37.54
2023-05-04T09:42:00.996Z,37.53
2023-05-04T09:44:29.912Z,37.56
2023-05-04T09:46:59.547Z,36.94
2023-05-04T09:49:32.824Z,36.89
2023-05-04T09:52:03.052Z,35.78
2023-05-04T09:54:36.030Z,35.15
2023-05-04T09:57:13.251Z,35.24
2023-05-04T09:59:50.157Z,35.15
2023-05-04T10:02:23.237Z,35.20
2023-05-04T10:04:52.913Z,33.95
2023-05-04T10:07:21.350Z,33.15
2023-05-04T10:09:53.782Z,32.83
2023-05-04T10:12:22.340Z,32.36
2023-05-04T10:14:50.930Z,31.78
2023-05-04T10:17:45.522Z,30.99
2023-05-04T10:20:51.243Z,30.77
2023-05-04T10:23:23.925Z,31.01
2023-05-04T10:26:18.506Z,31.59
2023-05-04T10:29:13.413Z,31.74
2023-05-04T10:31:43.096Z,32.33
2023-05-04T10:34:12.161Z,32.94
2023-05-04T10:36:44.279Z,33.26
2023-05-04T10:39:23.834Z,33.35
2023-05-04T10:42:17.367Z,33.42
2023-05-04T10:44:56.756Z,34.03
2023-05-04T10:47:33.224Z,34.42
2023-05-04T10:50:10.915Z,34.30
2023-05-04T10:52:47.088Z,33.92
2023-05-04T10:55:19.676Z,34.16
2023-05-04T10:57:55.918Z,33.63
2023-05-04T11:00:42.689Z,33.16
2023-05-04T11:03:12.663Z,33.08
2023-05-04T11:05:47.092Z,33.37
2023-05-04T11:08:22.688Z,33.69
2023-05-04T11:11:05.361Z,33.86
2023-05-04T11:13:41.910Z,33.79
2023-05-04T11:16:12.756Z,33.66
2023-05-04T11:18:41.804Z,34.01
2023-05-04T11:21:13.163Z,34.19
2023-05-04T11:23:42.572Z,33.56
2023-05-04T11:26:12.526Z,33.32
2023-05-04T11:28:41.176Z,32.80
2023-05-04T11:31:19.830Z,32.48
2023-05-04T11:33:53.049Z,32.10
2023-05-04T11:36:23.010Z,31.25
2023-05-04T11:38:51.706Z,31.08
2023-05-04T11:41:22.230Z,30.88
2023-05-04T11:43:50.821Z,30.75
2023-05-04T11:46:19.285Z,30.03
2023-05-04T11:48:47.736Z,29.77
2023-05-04T11:51:15.983Z,28.18
2023-05-04T11:53:44.601Z,27.95
2023-05-04T11:56:12.866Z,27.53
2023-05-04T11:58:41.546Z,26.92
2023-05-04T12:01:09.945Z,25.57
2023-05-04T12:03:53.013Z,25.18
2023-05-04T12:06:36.762Z,24.42
2023-05-04T12:09:07.021Z,24.39
2023-05-04T12:11:35.916Z,24.06
2023-05-04T12:14:13.972Z,23.41
2023-05-04T12:17:03.258Z,24.06
2023-05-04T12:19:32.889Z,24.64
2023-05-04T12:22:04.432Z,24.51
2023-05-04T12:24:35.761Z,25.08
2023-05-04T12:27:19.833Z,25.24
2023-05-04T12:29:49.207Z,25.50
2023-05-04T12:32:18.646Z,25.70
2023-05-04T12:34:47.410Z,25.49
2023-05-04T12:37:15.934Z,26.15
2023-05-04T12:39:44.513Z,25.58
2023-05-04T12:42:13.012Z,25.61
2023-05-04T12:44:41.288Z,25.91
2023-05-04T12:47:09.778Z,26.09
2023-05-04T12:49:38.480Z,26.71
2023-05-04T12:52:07.033Z,26.75
2023-05-04T12:54:35.534Z,26.12
2023-05-04T12:57:03.843Z,25.75
2023-05-04T12:59:50.236Z,25.19
2023-05-04T13:02:18.422Z,24.21
2023-05-04T13:04:46.789Z,24.07
2023-05-04T13:07:15.585Z,24.28
2023-05-04T13:09:44.281Z,24.47
2023-05-04T13:12:12.562Z,24.43
2023-05-04T13:14:40.734Z,24.14
2023-05-04T13:17:09.115Z,23.85
2023-05-04T13:19:37.373Z,23.84
2023-05-04T13:22:05.586Z,23.92
2023-05-04T13:24:33.960Z,24.12
2023-05-04T13:27:05.735Z,24.12
2023-05-04T13:29:37.186Z,24.65
2023-05-04T13:32:06.801Z,24.91
2023-05-04T13:34:34.967Z,25.33
2023-05-04T13:37:03.770Z,25.80
2023-05-04T13:39:41.271Z,26.29
2023-05-04T13:42:09.487Z,26.67
2023-05-04T13:44:37.724Z,27.19
2023-05-04T13:47:06.417Z,27.31
2023-05-04T13:49:34.856Z,27.33
2023-05-04T13:52:03.911Z,27.52
2023-05-04T13:54:32.393Z,27.72
2023-05-04T13:57:01.175Z,28.14
2023-05-04T13:59:29.983Z,28.47
2023-05-04T14:01:58.420Z,28.73
2023-05-04T14:04:27.155Z,28.82
2023-05-04T14:06:56.152Z,28.87
2023-05-04T14:09:26.204Z,28.97
2023-05-04T14:11:54.659Z,29.14
2023-05-04T14:14:23.139Z,29.12
2023-05-04T14:16:51.573Z,29.10
2023-05-04T14:19:20.530Z,29.41
2023-05-04T14:21:48.757Z,29.78
2023-05-04T14:24:16.839Z,30.03
2023-05-04T14:26:44.958Z,30.37
2023-05-04T14:29:13.163Z,30.74
2023-05-04T14:31:41.458Z,30.92
2023-05-04T14:34:10.221Z,31.26
2023-05-04T14:36:38.702Z,31.39
2023-05-04T14:39:06.987Z,31.40
2023-05-04T14:41:37.425Z,31.33
2023-05-04T14:44:05.811Z,31.46
2023-05-04T14:46:34.653Z,31.19
2023-05-04T14:49:03.297Z,31.20
2023-05-04T14:51:33.829Z,31.44
2023-05-04T14:54:02.310Z,31.30
2023-05-04T14:56:31.311Z,31.62
2023-05-04T14:59:01.414Z,31.41
2023-05-04T15:01:29.746Z,31.39
2023-05-04T15:03:58.103Z,31.47
2023-05-04T15:06:27.519Z,31.29
2023-05-04T15:08:56.093Z,31.28
2023-05-04T15:11:24.538Z,31.24
2023-05-04T15:13:55.832Z,31.57
2023-05-04T15:16:29.978Z,31.29
2023-05-04T15:18:59.501Z,30.90
2023-05-04T15:21:28.675Z,31.08
2023-05-04T15:23:56.742Z,30.73
2023-05-04T15:26:25.799Z,30.59
2023-05-04T15:28:54.285Z,30.30
2023-05-04T15:31:23.004Z,30.16
2023-05-04T15:33:51.509Z,30.37
2023-05-04T15:36:20.205Z,30.70
2023-05-04T15:38:48.590Z,31.03
2023-05-04T15:41:17.062Z,31.30
2023-05-04T15:43:45.449Z,31.56
2023-05-04T15:46:14.698Z,31.85
2023-05-04T15:48:43.248Z,32.15
2023-05-04T15:51:12.358Z,32.29
2023-05-04T15:53:40.687Z,32.73
2023-05-04T15:56:09.317Z,33.42
2023-05-04T15:58:37.925Z,33.89
2023-05-04T16:01:09.364Z,33.97
2023-05-04T16:03:39.796Z,34.32
2023-05-04T16:06:09.028Z,34.85
2023-05-04T16:08:38.894Z,35.12
2023-05-04T16:11:08.168Z,35.68
2023-05-04T16:13:36.934Z,36.39
2023-05-04T16:16:08.787Z,36.82
2023-05-04T16:18:37.258Z,37.31
2023-05-04T16:21:05.662Z,37.67
2023-05-04T16:23:33.830Z,38.01
2023-05-04T16:26:02.532Z,37.96
2023-05-04T16:28:31.113Z,38.47
2023-05-04T16:31:00.040Z,38.80
2023-05-04T16:33:28.696Z,39.04
2023-05-04T16:35:57.803Z,38.96
2023-05-04T16:38:26.291Z,39.24
2023-05-04T16:40:54.477Z,39.45
2023-05-04T16:43:24.182Z,39.88
2023-05-04T16:45:52.648Z,40.31
2023-05-04T16:48:21.281Z,40.81
2023-05-04T16:50:49.569Z,41.24
2023-05-04T16:53:17.857Z,41.14
2023-05-04T16:55:46.482Z,41.54
2023-05-04T16:58:15.305Z,41.34
2023-05-04T17:00:43.593Z,41.54
2023-05-04T17:03:11.844Z,41.77
2023-05-04T17:05:40.980Z,42.01
2023-05-04T17:08:10.483Z,42.13
2023-05-04T17:10:39.852Z,41.92
2023-05-04T17:13:08.396Z,42.08
2023-05-04T17:15:37.077Z,42.41
2023-05-04T17:18:06.015Z,42.66
2023-05-04T17:20:34.866Z,42.53
2023-05-04T17:23:03.167Z,42.41
2023-05-04T17:25:31.639Z,42.83
2023-05-04T17:28:00.141Z,43.24
2023-05-04T17:30:28.507Z,43.12
2023-05-04T17:32:57.587Z,43.07
2023-05-04T17:35:26.823Z,43.06
2023-05-04T17:37:58.527Z,43.19
2023-05-04T17:40:28.860Z,43.18
2023-05-04T17:42:57.214Z,43.25
2023-05-04T17:45:25.770Z,43.42
2023-05-04T17:47:54.641Z,43.31
2023-05-04T17:50:25.741Z,43.29
2023-05-04T17:52:58.007Z,43.62
2023-05-04T17:55:27.147Z,43.81
2023-05-04T17:57:55.565Z,44.00
2023-05-04T18:00:25.608Z,44.19
2023-05-04T18:02:53.940Z,44.57
2023-05-04T18:05:22.209Z,44.62
2023-05-04T18:07:50.741Z,45.01
2023-05-04T18:10:22.528Z,45.20
2023-05-04T18:12:51.441Z,45.54
2023-05-04T18:15:19.995Z,45.70
2023-05-04T18:17:50.684Z,45.87
2023-05-04T18:20:19.218Z,45.70
2023-05-04T18:22:47.804Z,46.47
2023-05-04T18:25:17.220Z,46.58
2023-05-04T18:27:45.516Z,46.79
2023-05-04T18:30:15.701Z,46.78
2023-05-04T18:32:44.134Z,47.34
2023-05-04T18:35:12.680Z,47.45
2023-05-04T18:37:41.490Z,48.11
2023-05-04T18:40:10.914Z,48.16
2023-05-04T18:42:40.920Z,48.21
2023-05-04T18:45:11.101Z,48.62
2023-05-04T18:47:39.440Z,48.54
2023-05-04T18:50:09.082Z,48.75
2023-05-04T18:52:37.636Z,48.87
2023-05-04T18:55:07.457Z,49.05
2023-05-04T18:57:37.162Z,49.29
2023-05-04T19:00:09.334Z,49.52
2023-05-04T19:02:40.438Z,49.80
2023-05-04T19:05:10.425Z,49.78
2023-05-04T19:07:40.010Z,49.84
2023-05-04T19:10:09.617Z,50.15
2023-05-04T19:12:37.938Z,50.31
2023-05-04T19:15:07.167Z,50.40
2023-05-04T19:17:38.390Z,50.82
2023-05-04T19:20:09.166Z,50.74
2023-05-04T19:22:37.582Z,50.99
2023-05-04T19:25:06.714Z,51.17
2023-05-04T19:27:35.250Z,51.79
2023-05-04T19:30:05.352Z,51.88
2023-05-04T19:32:34.091Z,52.13
2023-05-04T19:35:02.785Z,52.14
2023-05-04T19:37:37.934Z,52.24
2023-05-04T19:40:07.899Z,52.25
2023-05-04T19:42:39.576Z,52.82
2023-05-04T19:45:08.952Z,52.82
2023-05-04T19:47:38.660Z,53.27
2023-05-04T19:50:10.852Z,53.43
2023-05-04T19:52:39.070Z,53.50
2023-05-04T19:55:08.993Z,53.96
2023-05-04T19:57:37.801Z,54.28
2023-05-04T20:00:09.912Z,54.57
2023-05-04T20:02:42.188Z,54.41
2023-05-04T20:05:10.718Z,54.39
2023-05-04T20:07:39.320Z,54.43
2023-05-04T20:10:08.860Z,54.80
2023-05-04T20:12:37.413Z,54.97
2023-05-04T20:15:06.854Z,54.85
2023-05-04T20:17:35.175Z,54.92
2023-05-04T20:20:04.137Z,54.82
2023-05-04T20:22:33.195Z,54.96
2023-05-04T20:25:01.790Z,55.08
2023-05-04T20:27:30.166Z,55.13
2023-05-04T20:29:59.062Z,55.20
2023-05-04T20:32:29.200Z,55.25
2023-05-04T20:34:57.965Z,55.44
2023-05-04T20:37:26.159Z,55.47
2023-05-04T20:39:54.296Z,55.60
2023-05-04T20:42:22.517Z,55.62
2023-05-04T20:44:50.986Z,55.88
2023-05-04T20:47:19.897Z,56.13
2023-05-04T20:49:48.603Z,56.29
2023-05-04T20:52:19.650Z,56.45
2023-05-04T20:54:48.123Z,56.66
2023-05-04T20:57:16.430Z,56.64
2023-05-04T20:59:44.886Z,56.69
2023-05-04T21:02:13.381Z,56.68
2023-05-04T21:04:43.617Z,56.63
2023-05-04T21:07:12.508Z,56.53
2023-05-04T21:09:41.308Z,56.76
2023-05-04T21:12:10.280Z,57.18
2023-05-04T21:14:38.689Z,57.73
2023-05-04T21:17:07.455Z,57.55
2023-05-04T21:19:35.818Z,57.53
2023-05-04T21:22:04.046Z,57.62
2023-05-04T21:24:34.988Z,57.82
2023-05-04T21:27:03.377Z,58.20
2023-05-04T21:29:31.749Z,58.22
2023-05-04T21:32:00.931Z,58.27
2023-05-04T21:34:29.364Z,58.51
2023-05-04T21:36:57.825Z,58.61
2023-05-04T21:39:26.619Z,58.75
2023-05-04T21:41:55.494Z,58.84
2023-05-04T21:44:23.798Z,58.84
2023-05-04T21:46:52.866Z,58.90
2023-05-04T21:49:22.032Z,58.88
2023-05-04T21:51:51.927Z,59.02
2023-05-04T21:54:23.765Z,59.28
2023-05-04T21:56:51.961Z,59.20
2023-05-04T21:59:20.446Z,59.19
2023-05-04T22:01:49.045Z,59.35
2023-05-04T22:04:17.416Z,59.41
2023-05-04T22:06:46.220Z,60.19
2023-05-04T22:09:20.637Z,60.38
2023-05-04T22:11:49.848Z,60.26
2023-05-04T22:14:18.614Z,60.58
2023-05-04T22:16:47.584Z,60.59
2023-05-04T22:19:16.123Z,61.46
2023-05-04T22:21:44.609Z,61.24
2023-05-04T22:24:13.094Z,62.21
2023-05-04T22:26:41.685Z,62.89
2023-05-04T22:29:10.794Z,63.65
2023-05-04T22:31:39.166Z,63.60
2023-05-04T22:34:07.673Z,63.51
2023-05-04T22:36:36.347Z,63.63
2023-05-04T22:39:04.526Z,63.67
2023-05-04T22:41:32.707Z,63.39
2023-05-04T22:44:03.818Z,63.37
2023-05-04T22:46:32.578Z,63.06
2023-05-04T22:49:01.355Z,63.17
2023-05-04T22:51:29.630Z,63.34
2023-05-04T22:53:57.806Z,63.50
2023-05-04T22:56:26.367Z,63.16
2023-05-04T22:58:54.582Z,63.14
2023-05-04T23:01:23.069Z,63.01
2023-05-04T23:03:51.466Z,63.01
2023-05-04T23:06:19.929Z,63.31
2023-05-04T23:08:48.314Z,63.28
2023-05-04T23:11:22.364Z,63.47
2023-05-04T23:13:59.919Z,63.44
2023-05-04T23:16:28.415Z,63.67
2023-05-04T23:18:57.598Z,63.78
2023-05-04T23:21:25.953Z,64.84
2023-05-04T23:23:54.180Z,65.20
2023-05-04T23:26:22.454Z,66.16
2023-05-04T23:28:53.714Z,66.57
2023-05-04T23:31:22.536Z,65.84
2023-05-04T23:33:51.266Z,65.96
2023-05-04T23:36:19.469Z,66.36
2023-05-04T23:38:47.760Z,66.27
2023-05-04T23:41:15.947Z,66.69
2023-05-04T23:43:44.345Z,66.50
2023-05-04T23:46:12.993Z,66.58
2023-05-04T23:48:41.568Z,66.38
2023-05-04T23:51:10.179Z,66.19
2023-05-04T23:53:38.676Z,65.83
2023-05-04T23:56:07.923Z,65.89
2023-05-04T23:58:36.743Z,65.65
